Airfield :







YOU CAN JOIN US ON...

 
LOGIN :

Register | Disclaimer

   EN    FR    IT 

 









Legend :    VFR   Marginal VFR   IFR   Intensive IFR   Very Intensive IFR
Visi :
Ceiling :
>= 8 km
>= 3000ft
5 to 8 km
1000 to 3000 ft
1500m to 5 km
500 to 1000 ft
800 to 1500m
200 to 500 ft
< 800m
< 200 ft
Symbols :   Thunderstorms  Fog  Heavy snow  Heavy precipitations  Wind > 20 kt






- Airport Elevation : 90 ft
- IATA code : YHU


CYHU - Montréal Saint-Hubert

CURRENT METAR :
  • 291400Z AUTO 01009KT 9SM CLR M11/M17 A3020 RMK SLP229

EXPIRED METARs :
  • 291300Z AUTO 01005KT 9SM CLR M12/M17 A3016 RMK SLP217
  • 291200Z AUTO 34003KT 9SM CLR M12/M16 A3013 RMK SLP206

TAF TAF CYHU
Valid from the 29 at 12:00 until the 30 at 12:00 UTC


291138Z 2912/3012 32005KT P6SM SKC
BECMG 2920/2922 26005KT
BECMG 3003/3005 VRB03KT RMK FCST BASED ON AUTO OBS. NXT FCST BY 291800Z



MET'MAP, your aeronautical weather chart ! - Copyright ORBIFLY December 2007 - Disclaimer

ORBIFLY MET'MAP TEAM :

Programming & Development : Alexandra Zaïnal
Concept & original design : Baudouin d'Aumeries
Assistance for programming : Marc-Olivier Méhu
Technical & hardware support : Manuel Goepfert

Contact : metmap@orbifly.com




SOURCES & CREDITS :

   NOAA